CYMT

Chapais Airport

Chibougamau, Quebec, Canada
METAR CYMT 241900Z AUTO 14008KT 110V190 9SM FEW150 08/M07 A3052 RMK SLP357
Observed Flight Rules
Sep-24 @ 19:00 UTC (29 minutes ago) Visual Flight Rules
Wind Visibility Clouds
140° at 8 knots 9 miles
  • Few at 15,000' AGL
Temperatures Readings
Current 8°C / 46°F
Dewpoint -7°C / 19°F
Humidity 34%
Altimeter 30.52" Hg
Pressure 1035.7 hPa
Elevation 387
METAR CYMT 241900Z AUTO 14008KT 110V190 9SM FEW150 08/M07 A3052 RMK SLP357
Observed Flight Rules
Sep-24 @ 19:00 UTC
(29 minutes ago)
VFR
Wind Visibility
140° at 8 knots 9 miles
Clouds
  • Few at 15,000' AGL
Temperature Dewpoint
8°C / 46°F -7°C / 19°F
Humidity Altimeter Pressure
34% 30.52" Hg 1035.7 hPa